SIA275D SBGR-SBRJ
Flight info
| Callsign | SIA275D |
|---|---|
| Flight time | 0h 35m |
| Altitude | 25000 |
| Route | NIBRU UZ171 KEVUN |
| Aircraft | B77W/H-SDE1E2E3FGHIJ2J3J4J5M1RWXY/LB1D1 |
Departure
| Time | 2026-05-04 14:55 |
|---|---|
| Airport | São Paulo/Guarulhos–Governor André Franco Montoro International Airport (SBGR) |
Arrival
| Time | 2026-05-04 15:30 |
|---|---|
| Airport | Santos Dumont Airport (SBRJ) |
| Time | Latitude | Longitude | Altitude | Speed | Heading |
|---|---|---|---|---|---|
| 2026-05-04 14:38 | -23.42856 | -46.47675 | 2473 ft | 0 kts | 344° |
| 2026-05-04 14:43 | -23.42859 | -46.47675 | 2473 ft | 1 kts | 344° |
| 2026-05-04 14:43 | -23.42873 | -46.47670 | 2474 ft | 2 kts | 344° |
| 2026-05-04 14:43 | -23.42888 | -46.47664 | 2475 ft | 3 kts | 313° |
| 2026-05-04 14:43 | -23.42896 | -46.47648 | 2473 ft | 3 kts | 268° |
| 2026-05-04 14:44 | -23.42893 | -46.47627 | 2473 ft | 3 kts | 253° |
| 2026-05-04 14:44 | -23.42889 | -46.47613 | 2473 ft | 1 kts | 253° |
| 2026-05-04 14:44 | -23.42888 | -46.47610 | 2473 ft | 0 kts | 253° |
| 2026-05-04 14:46 | -23.42889 | -46.47611 | 2473 ft | 1 kts | 253° |
| 2026-05-04 14:46 | -23.42900 | -46.47651 | 2473 ft | 8 kts | 253° |
| 2026-05-04 14:46 | -23.42915 | -46.47708 | 2475 ft | 8 kts | 253° |
| 2026-05-04 14:47 | -23.42934 | -46.47776 | 2476 ft | 12 kts | 252° |
| 2026-05-04 14:47 | -23.43019 | -46.47829 | 2480 ft | 16 kts | 219° |
| 2026-05-04 14:47 | -23.43061 | -46.47941 | 2473 ft | 16 kts | 256° |
| 2026-05-04 14:47 | -23.43096 | -46.48056 | 2478 ft | 16 kts | 252° |
| 2026-05-04 14:48 | -23.43129 | -46.48173 | 2477 ft | 16 kts | 253° |
| 2026-05-04 14:48 | -23.43158 | -46.48290 | 2476 ft | 16 kts | 255° |
| 2026-05-04 14:48 | -23.43178 | -46.48368 | 2474 ft | 10 kts | 253° |
| 2026-05-04 14:48 | -23.43206 | -46.48391 | 2478 ft | 0 kts | 169° |
| 2026-05-04 14:49 | -23.43239 | -46.48383 | 2476 ft | 0 kts | 166° |
| 2026-05-04 14:49 | -23.43240 | -46.48383 | 2476 ft | 0 kts | 166° |
| 2026-05-04 14:49 | -23.43242 | -46.48382 | 2476 ft | 0 kts | 166° |
| 2026-05-04 14:50 | -23.43246 | -46.48382 | 2475 ft | 0 kts | 166° |
| 2026-05-04 14:50 | -23.43249 | -46.48381 | 2475 ft | 1 kts | 166° |
| 2026-05-04 14:50 | -23.43262 | -46.48377 | 2477 ft | 5 kts | 165° |
| 2026-05-04 14:50 | -23.43274 | -46.48373 | 2477 ft | 0 kts | 164° |
| 2026-05-04 14:52 | -23.43301 | -46.48365 | 2479 ft | 11 kts | 164° |
| 2026-05-04 14:52 | -23.43393 | -46.48334 | 2478 ft | 9 kts | 148° |
| 2026-05-04 14:52 | -23.43408 | -46.48268 | 2476 ft | 10 kts | 85° |
| 2026-05-04 14:53 | -23.43403 | -46.48246 | 2474 ft | 0 kts | 75° |
| 2026-05-04 14:54 | -23.43343 | -46.48016 | 2478 ft | 86 kts | 73° |
| 2026-05-04 14:54 | -23.43071 | -46.46979 | 2623 ft | 188 kts | 74° |
| 2026-05-04 14:55 | -23.42699 | -46.45597 | 4255 ft | 190 kts | 72° |
| 2026-05-04 14:55 | -23.42278 | -46.44107 | 5224 ft | 223 kts | 69° |
| 2026-05-04 14:55 | -23.41759 | -46.42349 | 5550 ft | 264 kts | 69° |
| 2026-05-04 14:55 | -23.41177 | -46.40366 | 6341 ft | 280 kts | 69° |
| 2026-05-04 14:56 | -23.40575 | -46.38319 | 7414 ft | 287 kts | 70° |
| 2026-05-04 14:56 | -23.40141 | -46.36196 | 8356 ft | 295 kts | 90° |
| 2026-05-04 14:56 | -23.40602 | -46.34009 | 9334 ft | 300 kts | 111° |
| 2026-05-04 14:56 | -23.41360 | -46.31864 | 10413 ft | 304 kts | 111° |
| 2026-05-04 14:57 | -23.42104 | -46.29654 | 11197 ft | 323 kts | 111° |
| 2026-05-04 14:57 | -23.42903 | -46.27240 | 11488 ft | 356 kts | 111° |
| 2026-05-04 14:57 | -23.43748 | -46.24647 | 12127 ft | 375 kts | 110° |
| 2026-05-04 14:57 | -23.44448 | -46.21866 | 13080 ft | 386 kts | 103° |
| 2026-05-04 14:58 | -23.44948 | -46.18976 | 14136 ft | 392 kts | 101° |
| 2026-05-04 14:58 | -23.45418 | -46.15893 | 15144 ft | 399 kts | 101° |
| 2026-05-04 14:58 | -23.45862 | -46.13007 | 16052 ft | 405 kts | 101° |
| 2026-05-04 14:58 | -23.46353 | -46.09955 | 16986 ft | 413 kts | 102° |
| 2026-05-04 14:59 | -23.46874 | -46.06848 | 17865 ft | 421 kts | 102° |
| 2026-05-04 14:59 | -23.47416 | -46.03686 | 18739 ft | 428 kts | 102° |
| 2026-05-04 14:59 | -23.48532 | -45.97237 | 20401 ft | 439 kts | 103° |
| 2026-05-04 15:00 | -23.49100 | -45.93944 | 21209 ft | 446 kts | 103° |
| 2026-05-04 15:00 | -23.49680 | -45.90603 | 22020 ft | 452 kts | 103° |
| 2026-05-04 15:00 | -23.50273 | -45.87225 | 22911 ft | 455 kts | 103° |
| 2026-05-04 15:01 | -23.51455 | -45.80489 | 24923 ft | 450 kts | 104° |
| 2026-05-04 15:01 | -23.52038 | -45.77168 | 25601 ft | 457 kts | 104° |
| 2026-05-04 15:01 | -23.52646 | -45.73714 | 25878 ft | 468 kts | 104° |
| 2026-05-04 15:01 | -23.53257 | -45.70218 | 26099 ft | 474 kts | 104° |
| 2026-05-04 15:02 | -23.53884 | -45.66638 | 26362 ft | 489 kts | 104° |
| 2026-05-04 15:02 | -23.54524 | -45.62958 | 26624 ft | 498 kts | 104° |
| 2026-05-04 15:02 | -23.55168 | -45.59231 | 26877 ft | 502 kts | 104° |
| 2026-05-04 15:02 | -23.55817 | -45.55483 | 27096 ft | 504 kts | 104° |
| 2026-05-04 15:03 | -23.56457 | -45.51774 | 27144 ft | 490 kts | 104° |
| 2026-05-04 15:03 | -23.57036 | -45.48188 | 27158 ft | 470 kts | 99° |
| 2026-05-04 15:03 | -23.57025 | -45.44681 | 27171 ft | 459 kts | 81° |
| 2026-05-04 15:03 | -23.56277 | -45.41292 | 27216 ft | 464 kts | 76° |
| 2026-05-04 15:04 | -23.55476 | -45.37875 | 27206 ft | 464 kts | 77° |
| 2026-05-04 15:04 | -23.54701 | -45.34466 | 27199 ft | 462 kts | 77° |
| 2026-05-04 15:04 | -23.53951 | -45.31065 | 27196 ft | 460 kts | 77° |
| 2026-05-04 15:04 | -23.53221 | -45.27676 | 27205 ft | 459 kts | 78° |
| 2026-05-04 15:05 | -23.52501 | -45.24288 | 27198 ft | 458 kts | 78° |
| 2026-05-04 15:05 | -23.51794 | -45.20953 | 27207 ft | 457 kts | 78° |
| 2026-05-04 15:05 | -23.51083 | -45.17594 | 27217 ft | 453 kts | 78° |
| 2026-05-04 15:05 | -23.50379 | -45.14286 | 27196 ft | 441 kts | 78° |
| 2026-05-04 15:06 | -23.49690 | -45.11058 | 27160 ft | 430 kts | 78° |
| 2026-05-04 15:06 | -23.49027 | -45.07953 | 26653 ft | 413 kts | 78° |
| 2026-05-04 15:06 | -23.48377 | -45.04909 | 25984 ft | 414 kts | 78° |
| 2026-05-04 15:07 | -23.47071 | -44.98797 | 24988 ft | 417 kts | 78° |
| 2026-05-04 15:07 | -23.46413 | -44.95728 | 24577 ft | 416 kts | 78° |
| 2026-05-04 15:07 | -23.45740 | -44.92628 | 23849 ft | 425 kts | 77° |
| 2026-05-04 15:07 | -23.45041 | -44.89465 | 22966 ft | 434 kts | 77° |
| 2026-05-04 15:08 | -23.44328 | -44.86266 | 22292 ft | 436 kts | 77° |
| 2026-05-04 15:08 | -23.43612 | -44.83062 | 21932 ft | 430 kts | 77° |
| 2026-05-04 15:08 | -23.42913 | -44.79933 | 21824 ft | 418 kts | 77° |
| 2026-05-04 15:08 | -23.42230 | -44.76871 | 21389 ft | 415 kts | 76° |
| 2026-05-04 15:09 | -23.41551 | -44.73824 | 20981 ft | 412 kts | 76° |
| 2026-05-04 15:09 | -23.40879 | -44.70808 | 20576 ft | 409 kts | 76° |
| 2026-05-04 15:09 | -23.40208 | -44.67800 | 20171 ft | 406 kts | 76° |
| 2026-05-04 15:10 | -23.38889 | -44.61895 | 19370 ft | 402 kts | 76° |
| 2026-05-04 15:10 | -23.38230 | -44.58945 | 18972 ft | 400 kts | 76° |
| 2026-05-04 15:10 | -23.36921 | -44.53103 | 18178 ft | 394 kts | 76° |
| 2026-05-04 15:11 | -23.36273 | -44.50213 | 17744 ft | 392 kts | 76° |
| 2026-05-04 15:11 | -23.35629 | -44.47344 | 17328 ft | 389 kts | 76° |
| 2026-05-04 15:11 | -23.34989 | -44.44496 | 16920 ft | 386 kts | 76° |
| 2026-05-04 15:11 | -23.34318 | -44.41678 | 16516 ft | 381 kts | 71° |
| 2026-05-04 15:12 | -23.33346 | -44.38999 | 16121 ft | 377 kts | 64° |
| 2026-05-04 15:12 | -23.32222 | -44.36460 | 15734 ft | 374 kts | 62° |
| 2026-05-04 15:12 | -23.31057 | -44.33935 | 15340 ft | 372 kts | 62° |
| 2026-05-04 15:12 | -23.29911 | -44.31425 | 14944 ft | 369 kts | 63° |
| 2026-05-04 15:13 | -23.28793 | -44.28921 | 14535 ft | 362 kts | 64° |
| 2026-05-04 15:13 | -23.27745 | -44.26529 | 14143 ft | 339 kts | 64° |
| 2026-05-04 15:13 | -23.26770 | -44.24281 | 13785 ft | 329 kts | 64° |
| 2026-05-04 15:13 | -23.25799 | -44.22032 | 13409 ft | 328 kts | 64° |
| 2026-05-04 15:14 | -23.24831 | -44.19786 | 13045 ft | 326 kts | 64° |
| 2026-05-04 15:14 | -23.23870 | -44.17555 | 12690 ft | 325 kts | 64° |
| 2026-05-04 15:14 | -23.22912 | -44.15332 | 12332 ft | 324 kts | 64° |
| 2026-05-04 15:14 | -23.21954 | -44.13109 | 11978 ft | 323 kts | 64° |
| 2026-05-04 15:15 | -23.21002 | -44.10904 | 11625 ft | 322 kts | 64° |
| 2026-05-04 15:15 | -23.20052 | -44.08704 | 11277 ft | 321 kts | 64° |
| 2026-05-04 15:15 | -23.19096 | -44.06555 | 11072 ft | 315 kts | 62° |
| 2026-05-04 15:16 | -23.17135 | -44.02317 | 10741 ft | 316 kts | 62° |
| 2026-05-04 15:16 | -23.16144 | -44.00170 | 10574 ft | 318 kts | 62° |
| 2026-05-04 15:16 | -23.14255 | -43.95865 | 10234 ft | 309 kts | 64° |
| 2026-05-04 15:17 | -23.13362 | -43.93757 | 10047 ft | 302 kts | 64° |
| 2026-05-04 15:17 | -23.11647 | -43.89724 | 9693 ft | 290 kts | 63° |
| 2026-05-04 15:17 | -23.10800 | -43.87743 | 9563 ft | 289 kts | 63° |
| 2026-05-04 15:18 | -23.09949 | -43.85758 | 9408 ft | 291 kts | 63° |
| 2026-05-04 15:18 | -23.09091 | -43.83752 | 9265 ft | 293 kts | 63° |
| 2026-05-04 15:18 | -23.08230 | -43.81742 | 9105 ft | 293 kts | 63° |
| 2026-05-04 15:19 | -23.06517 | -43.77739 | 8789 ft | 291 kts | 63° |
| 2026-05-04 15:19 | -23.05665 | -43.75749 | 8627 ft | 290 kts | 63° |
| 2026-05-04 15:19 | -23.03969 | -43.71792 | 8324 ft | 288 kts | 63° |
| 2026-05-04 15:20 | -23.03125 | -43.69826 | 8162 ft | 288 kts | 63° |
| 2026-05-04 15:20 | -23.02267 | -43.67855 | 7881 ft | 290 kts | 63° |
| 2026-05-04 15:20 | -23.01398 | -43.65872 | 7567 ft | 293 kts | 63° |
| 2026-05-04 15:20 | -23.00518 | -43.63863 | 7208 ft | 294 kts | 63° |
| 2026-05-04 15:21 | -22.99654 | -43.61889 | 6960 ft | 283 kts | 63° |
| 2026-05-04 15:21 | -22.98820 | -43.59990 | 6785 ft | 276 kts | 62° |
| 2026-05-04 15:21 | -22.97183 | -43.56269 | 6456 ft | 272 kts | 62° |
| 2026-05-04 15:22 | -22.96384 | -43.54449 | 6264 ft | 269 kts | 62° |
| 2026-05-04 15:22 | -22.95576 | -43.52617 | 6158 ft | 269 kts | 62° |
| 2026-05-04 15:22 | -22.93953 | -43.48868 | 5663 ft | 278 kts | 63° |
| 2026-05-04 15:23 | -22.93151 | -43.46965 | 5350 ft | 273 kts | 63° |
| 2026-05-04 15:23 | -22.92386 | -43.45147 | 5068 ft | 258 kts | 63° |
| 2026-05-04 15:23 | -22.91649 | -43.43400 | 4815 ft | 253 kts | 62° |
| 2026-05-04 15:23 | -22.90909 | -43.41666 | 4558 ft | 249 kts | 63° |
| 2026-05-04 15:24 | -22.89595 | -43.38562 | 4120 ft | 208 kts | 63° |
| 2026-05-04 15:24 | -22.88450 | -43.35853 | 3834 ft | 191 kts | 66° |
| 2026-05-04 15:25 | -22.88270 | -43.34471 | 3635 ft | 182 kts | 92° |
| 2026-05-04 15:25 | -22.88352 | -43.33119 | 3523 ft | 182 kts | 89° |
| 2026-05-04 15:25 | -22.88396 | -43.31743 | 3341 ft | 182 kts | 90° |
| 2026-05-04 15:26 | -22.88483 | -43.29057 | 2952 ft | 171 kts | 91° |
| 2026-05-04 15:26 | -22.88523 | -43.27806 | 2790 ft | 160 kts | 91° |
| 2026-05-04 15:26 | -22.88875 | -43.25505 | 2468 ft | 148 kts | 113° |
| 2026-05-04 15:27 | -22.89277 | -43.24500 | 2343 ft | 146 kts | 110° |
| 2026-05-04 15:27 | -22.89918 | -43.22806 | 2014 ft | 144 kts | 112° |
| 2026-05-04 15:28 | -22.91096 | -43.20665 | 1636 ft | 144 kts | 135° |
| 2026-05-04 15:28 | -22.91640 | -43.20234 | 1498 ft | 148 kts | 144° |
| 2026-05-04 15:28 | -22.93472 | -43.19226 | 1183 ft | 150 kts | 148° |
| 2026-05-04 15:29 | -22.94370 | -43.18663 | 1031 ft | 148 kts | 130° |
| 2026-05-04 15:30 | -22.92533 | -43.16185 | 265 ft | 148 kts | 352° |
| 2026-05-04 15:30 | -22.90438 | -43.16325 | 26 ft | 2 kts | 357° |
| 2026-05-04 15:31 | -22.90500 | -43.16327 | 29 ft | 6 kts | 320° |
| 2026-05-04 15:31 | -22.90493 | -43.16386 | 29 ft | 9 kts | 271° |
| 2026-05-04 15:32 | -22.90544 | -43.16556 | 27 ft | 7 kts | 187° |
| 2026-05-04 15:32 | -22.90661 | -43.16549 | 27 ft | 10 kts | 173° |
| 2026-05-04 15:33 | -22.90787 | -43.16543 | 27 ft | 0 kts | 187° |
| 2026-05-04 15:34 | -22.90819 | -43.16548 | 27 ft | 0 kts | 187° |
| 2026-05-04 15:34 | -22.90827 | -43.16549 | 27 ft | 2 kts | 187° |
| 2026-05-04 15:34 | -22.90871 | -43.16548 | 27 ft | 6 kts | 177° |
| 2026-05-04 15:35 | -22.90990 | -43.16579 | 27 ft | 6 kts | 258° |
| 2026-05-04 15:35 | -22.90992 | -43.16598 | 27 ft | 0 kts | 269° |